Time;durP1;ratioP1;P1;durP2;ratioP2;P2;SDS_P1;SDS_P2;PMS_P1;PMS_P2;Temp;Humidity;BMP_temperature;BMP_pressure;BME280_temperature;BME280_humidity;BME280_pressure;Samples;Min_cycle;Max_cycle;Signal;HPM_P1;HPM_P2
2022/07/09 00:00:00;;;;;;;;;;;25.60;96.60;;;;;;5091520;28;20348;-72
2022/07/09 00:02:26;;;;;;;;;;;25.60;96.50;;;;;;5089952;28;20019;-73
2022/07/09 00:04:52;;;;;;;;;;;25.60;96.70;;;;;;5089633;28;19903;-73
2022/07/09 00:07:18;;;;;;;;;;;25.50;96.80;;;;;;5091452;28;19904;-73
2022/07/09 00:09:44;;;;;;;;;;;25.60;96.80;;;;;;5091110;28;20301;-73
2022/07/09 00:12:10;;;;;;;;;;;25.50;96.90;;;;;;5090961;28;19994;-73
2022/07/09 00:14:35;;;;;;;;;;;25.60;96.80;;;;;;5091100;28;19908;-73
2022/07/09 00:17:01;;;;;;;;;;;25.60;97.00;;;;;;5091117;28;20405;-73
2022/07/09 00:19:27;;;;;;;;;;;25.70;97.00;;;;;;5091333;28;19904;-72
2022/07/09 00:21:53;;;;;;;;;;;25.70;97.30;;;;;;5090337;28;19920;-73
2022/07/09 00:24:19;;;;;;;;;;;25.60;97.40;;;;;;5088971;28;19916;-73
2022/07/09 00:26:45;;;;;;;;;;;25.70;97.60;;;;;;5090128;28;19943;-74
2022/07/09 00:29:10;;;;;;;;;;;25.70;97.60;;;;;;5089575;28;19955;-73
2022/07/09 00:31:36;;;;;;;;;;;25.70;97.60;;;;;;5089790;28;20032;-73
2022/07/09 00:34:02;;;;;;;;;;;25.70;97.60;;;;;;5091038;28;20046;-74
2022/07/09 00:36:28;;;;;;;;;;;25.60;97.60;;;;;;5090875;28;20036;-73
2022/07/09 00:38:54;;;;;;;;;;;25.50;97.80;;;;;;5090620;28;19904;-73
2022/07/09 00:41:19;;;;;;;;;;;25.40;98.00;;;;;;5090667;28;19914;-74
2022/07/09 00:43:49;;;;;;;;;;;25.50;98.20;;;;;;5090711;28;19916;-73
2022/07/09 00:46:18;;;;;;;;;;;25.50;97.90;;;;;;5090816;28;19907;-73
2022/07/09 00:48:44;;;;;;;;;;;25.30;98.10;;;;;;5090768;28;20371;-73
2022/07/09 00:51:11;;;;;;;;;;;25.20;98.40;;;;;;5091040;28;19950;-73
2022/07/09 00:53:37;;;;;;;;;;;25.10;98.70;;;;;;5089038;28;19904;-73
2022/07/09 00:56:03;;;;;;;;;;;25.00;99.10;;;;;;5090987;28;19904;-73
2022/07/09 00:58:29;;;;;;;;;;;25.00;99.10;;;;;;5090616;28;20276;-73
2022/07/09 01:00:55;;;;;;;;;;;25.10;99.00;;;;;;5090602;28;19908;-73
2022/07/09 01:03:21;;;;;;;;;;;25.10;99.00;;;;;;5090672;28;19920;-73
2022/07/09 01:05:48;;;;;;;;;;;25.20;98.90;;;;;;5088925;28;19904;-73
2022/07/09 01:08:14;;;;;;;;;;;25.30;99.10;;;;;;5090773;28;19904;-74
2022/07/09 01:10:40;;;;;;;;;;;25.30;98.60;;;;;;5090706;28;20371;-74
2022/07/09 01:13:06;;;;;;;;;;;25.30;98.60;;;;;;5089296;28;19967;-73
2022/07/09 01:15:32;;;;;;;;;;;25.30;98.80;;;;;;5090708;28;19904;-74
2022/07/09 01:17:59;;;;;;;;;;;25.40;98.90;;;;;;5091168;28;19954;-73
2022/07/09 01:20:25;;;;;;;;;;;25.50;98.80;;;;;;5089136;28;19954;-73
2022/07/09 01:22:51;;;;;;;;;;;25.50;98.70;;;;;;5090824;28;20357;-73
2022/07/09 01:25:18;;;;;;;;;;;25.50;98.60;;;;;;5090855;28;20037;-74
2022/07/09 01:27:44;;;;;;;;;;;25.40;98.60;;;;;;5090707;28;19904;-73
2022/07/09 01:30:10;;;;;;;;;;;25.30;98.80;;;;;;5090770;28;19911;-74
2022/07/09 01:32:36;;;;;;;;;;;25.30;98.80;;;;;;5090444;28;19908;-73
2022/07/09 01:35:03;;;;;;;;;;;25.30;98.70;;;;;;5094409;28;19904;-74
2022/07/09 01:37:29;;;;;;;;;;;25.40;98.70;;;;;;5094213;28;20294;-74
2022/07/09 01:39:54;;;;;;;;;;;25.40;98.60;;;;;;5094165;28;19904;-74
2022/07/09 01:42:20;;;;;;;;;;;25.40;98.70;;;;;;5094500;28;19908;-74
2022/07/09 01:44:48;;;;;;;;;;;25.40;98.40;;;;;;5094325;28;19919;-73
2022/07/09 01:47:16;;;;;;;;;;;25.30;98.60;;;;;;5092511;28;19904;-74
2022/07/09 01:49:42;;;;;;;;;;;25.20;98.50;;;;;;5094011;28;20285;-74
2022/07/09 01:52:09;;;;;;;;;;;25.20;98.40;;;;;;5093690;28;20379;-72
2022/07/09 01:54:34;;;;;;;;;;;25.20;98.60;;;;;;5093588;28;20054;-73
2022/07/09 01:57:00;;;;;;;;;;;25.20;98.20;;;;;;5092025;28;19969;-73
2022/07/09 01:59:26;;;;;;;;;;;25.20;97.90;;;;;;5093824;28;19911;-73
2022/07/09 02:01:52;;;;;;;;;;;25.20;97.70;;;;;;5093643;28;19949;-73
2022/07/09 02:04:18;;;;;;;;;;;25.30;97.60;;;;;;5093708;28;19950;-73
2022/07/09 02:06:43;;;;;;;;;;;25.20;97.60;;;;;;5094155;28;19967;-74
2022/07/09 02:09:09;;;;;;;;;;;25.30;97.60;;;;;;5093834;28;19927;-73
2022/07/09 02:11:35;;;;;;;;;;;25.20;97.70;;;;;;5093162;28;19931;-74
2022/07/09 02:14:01;;;;;;;;;;;25.20;97.70;;;;;;5093854;28;19965;-73
2022/07/09 02:16:27;;;;;;;;;;;25.20;97.50;;;;;;5093373;28;19910;-73
2022/07/09 02:18:52;;;;;;;;;;;25.20;97.70;;;;;;5093769;28;19904;-73
2022/07/09 02:21:18;;;;;;;;;;;25.10;97.70;;;;;;5093468;28;19910;-73
2022/07/09 02:23:45;;;;;;;;;;;25.10;97.80;;;;;;5093201;28;19919;-73
2022/07/09 02:26:11;;;;;;;;;;;25.20;97.90;;;;;;5091651;28;19943;-74
2022/07/09 02:28:36;;;;;;;;;;;25.20;97.90;;;;;;5093573;28;19947;-73
2022/07/09 02:31:02;;;;;;;;;;;25.10;98.00;;;;;;5093303;28;19973;-73
2022/07/09 02:33:30;;;;;;;;;;;25.10;97.90;;;;;;5093396;28;19919;-73
2022/07/09 02:35:56;;;;;;;;;;;25.00;98.10;;;;;;5092943;28;20012;-73
2022/07/09 02:38:21;;;;;;;;;;;25.00;98.30;;;;;;5093055;28;20027;-73
2022/07/09 02:40:48;;;;;;;;;;;25.10;98.30;;;;;;5092567;28;19908;-72
2022/07/09 02:43:14;;;;;;;;;;;25.10;98.20;;;;;;5092436;28;19955;-72
2022/07/09 02:45:39;;;;;;;;;;;25.10;98.10;;;;;;5091870;28;20389;-72
2022/07/09 02:48:05;;;;;;;;;;;25.00;98.20;;;;;;5092527;28;20006;-73
2022/07/09 02:50:32;;;;;;;;;;;25.00;98.20;;;;;;5092385;28;19904;-72
2022/07/09 02:52:58;;;;;;;;;;;24.90;98.40;;;;;;5092896;28;19904;-72
2022/07/09 02:55:23;;;;;;;;;;;24.80;98.50;;;;;;5092582;28;19904;-73
2022/07/09 02:57:49;;;;;;;;;;;24.90;98.60;;;;;;5092743;28;19976;-72
2022/07/09 03:00:15;;;;;;;;;;;24.90;98.50;;;;;;5092351;28;19915;-72
2022/07/09 03:02:41;;;;;;;;;;;24.90;98.60;;;;;;5090793;28;20021;-72
2022/07/09 03:05:07;;;;;;;;;;;25.00;98.40;;;;;;5092518;28;19908;-73
2022/07/09 03:07:32;;;;;;;;;;;25.00;98.30;;;;;;5092169;28;19911;-72
2022/07/09 03:09:58;;;;;;;;;;;25.00;98.20;;;;;;5090650;28;19931;-73
2022/07/09 03:12:24;;;;;;;;;;;25.00;98.20;;;;;;5092073;28;19916;-73
2022/07/09 03:14:50;;;;;;;;;;;25.00;98.60;;;;;;5092560;28;19911;-73
2022/07/09 03:17:16;;;;;;;;;;;25.00;98.70;;;;;;5092584;28;19915;-74
2022/07/09 03:19:41;;;;;;;;;;;25.00;98.90;;;;;;5090886;28;19915;-74
2022/07/09 03:22:07;;;;;;;;;;;25.00;99.00;;;;;;5092764;28;19904;-73
2022/07/09 03:24:33;;;;;;;;;;;24.90;99.40;;;;;;5091064;28;19953;-73
2022/07/09 03:26:59;;;;;;;;;;;24.80;99.80;;;;;;5092632;28;19904;-74
2022/07/09 03:29:25;;;;;;;;;;;24.80;99.80;;;;;;5090863;28;20038;-73
2022/07/09 03:31:50;;;;;;;;;;;24.90;99.90;;;;;;5092633;28;19951;-73
2022/07/09 03:34:16;;;;;;;;;;;24.90;99.90;;;;;;5092126;28;20403;-72
2022/07/09 03:36:42;;;;;;;;;;;24.90;99.80;;;;;;5092240;28;19908;-73
2022/07/09 03:39:08;;;;;;;;;;;24.90;99.80;;;;;;5092291;28;19904;-73
2022/07/09 03:41:34;;;;;;;;;;;24.90;99.90;;;;;;5092085;28;19904;-73
2022/07/09 03:43:59;;;;;;;;;;;24.90;99.90;;;;;;5092192;28;20204;-73
2022/07/09 03:46:25;;;;;;;;;;;24.80;99.90;;;;;;5092380;28;19926;-73
2022/07/09 03:48:51;;;;;;;;;;;24.80;99.90;;;;;;5092054;28;19908;-73
2022/07/09 03:51:17;;;;;;;;;;;24.80;99.90;;;;;;5090446;28;20021;-73
2022/07/09 03:53:43;;;;;;;;;;;24.80;99.90;;;;;;5091795;28;20365;-73
2022/07/09 03:56:09;;;;;;;;;;;24.80;99.90;;;;;;5090715;28;20275;-73
2022/07/09 03:58:35;;;;;;;;;;;24.80;99.90;;;;;;5092090;28;19927;-73
2022/07/09 04:01:01;;;;;;;;;;;24.80;99.90;;;;;;5092359;28;19904;-73
2022/07/09 04:03:27;;;;;;;;;;;24.80;99.90;;;;;;5091926;28;20011;-73
2022/07/09 04:05:53;;;;;;;;;;;24.80;99.90;;;;;;5091951;28;19904;-73
2022/07/09 04:08:19;;;;;;;;;;;24.80;99.90;;;;;;5091472;28;19908;-73
2022/07/09 04:10:44;;;;;;;;;;;24.80;99.90;;;;;;5091609;28;20039;-73
2022/07/09 04:13:10;;;;;;;;;;;24.80;99.90;;;;;;5091607;28;19908;-73
2022/07/09 04:15:36;;;;;;;;;;;24.80;99.90;;;;;;5091905;28;20356;-73
2022/07/09 04:18:02;;;;;;;;;;;24.80;99.90;;;;;;5091962;28;19926;-73
2022/07/09 04:20:28;;;;;;;;;;;24.90;99.90;;;;;;5092034;28;20043;-73
2022/07/09 04:22:54;;;;;;;;;;;24.90;99.90;;;;;;5092054;28;19912;-73
2022/07/09 04:25:21;;;;;;;;;;;24.90;99.90;;;;;;5091856;28;20010;-73
2022/07/09 04:27:47;;;;;;;;;;;24.80;99.90;;;;;;5091887;28;19911;-73
2022/07/09 04:30:13;;;;;;;;;;;24.70;99.90;;;;;;5092199;28;19952;-73
2022/07/09 04:32:39;;;;;;;;;;;24.70;99.90;;;;;;5092038;28;20233;-73
2022/07/09 04:35:05;;;;;;;;;;;24.80;99.90;;;;;;5091859;28;19911;-73
2022/07/09 04:37:30;;;;;;;;;;;24.80;99.90;;;;;;5091949;28;19904;-73
2022/07/09 04:39:56;;;;;;;;;;;24.80;99.90;;;;;;5092980;28;19960;-73
2022/07/09 04:42:22;;;;;;;;;;;24.80;99.90;;;;;;5092271;28;19908;-73
2022/07/09 04:44:48;;;;;;;;;;;24.90;99.90;;;;;;5092971;28;20313;-73
2022/07/09 04:47:14;;;;;;;;;;;24.90;99.90;;;;;;5092557;28;19911;-73
2022/07/09 04:49:39;;;;;;;;;;;24.90;99.90;;;;;;5092838;28;19908;-73
2022/07/09 04:52:06;;;;;;;;;;;24.90;99.90;;;;;;5092744;28;19904;-73
2022/07/09 04:54:31;;;;;;;;;;;24.90;99.90;;;;;;5093021;28;19990;-73
2022/07/09 04:56:57;;;;;;;;;;;24.90;99.90;;;;;;5091189;28;19904;-73
2022/07/09 04:59:24;;;;;;;;;;;24.90;99.90;;;;;;5092618;28;20371;-73
2022/07/09 05:01:50;;;;;;;;;;;25.00;99.90;;;;;;5092471;28;19920;-73
2022/07/09 05:04:16;;;;;;;;;;;25.00;99.90;;;;;;5092814;28;20315;-73
2022/07/09 05:06:42;;;;;;;;;;;25.20;99.90;;;;;;5092288;28;19911;-73
2022/07/09 05:09:08;;;;;;;;;;;26.10;99.90;;;;;;5094775;28;19951;-74
2022/07/09 05:11:34;;;;;;;;;;;27.90;97.90;;;;;;5096247;28;20356;-73
2022/07/09 05:14:00;;;;;;;;;;;29.70;94.90;;;;;;5096149;28;20228;-74
2022/07/09 05:16:26;;;;;;;;;;;31.20;92.30;;;;;;5095906;28;20004;-73
2022/07/09 05:18:52;;;;;;;;;;;32.80;90.10;;;;;;5096200;28;19912;-74
2022/07/09 05:21:17;;;;;;;;;;;33.70;87.00;;;;;;5095901;28;19904;-74
2022/07/09 05:23:43;;;;;;;;;;;34.70;83.30;;;;;;5095837;28;19947;-74
2022/07/09 05:26:09;;;;;;;;;;;35.90;79.70;;;;;;5095489;28;19911;-74
2022/07/09 05:28:35;;;;;;;;;;;37.00;77.50;;;;;;5095601;28;19903;-74
2022/07/09 05:31:01;;;;;;;;;;;37.10;74.70;;;;;;5096142;28;19904;-74
2022/07/09 05:33:26;;;;;;;;;;;38.40;73.10;;;;;;5095711;28;19908;-75
2022/07/09 05:35:52;;;;;;;;;;;39.60;70.00;;;;;;5094433;28;19904;-75
2022/07/09 05:38:18;;;;;;;;;;;39.90;68.40;;;;;;5095872;28;20201;-72
2022/07/09 05:40:44;;;;;;;;;;;40.30;67.00;;;;;;5095979;28;19904;-74
2022/07/09 05:43:10;;;;;;;;;;;40.30;65.30;;;;;;5095241;28;19919;-73
2022/07/09 05:45:36;;;;;;;;;;;40.30;64.80;;;;;;5095377;28;19904;-74
2022/07/09 05:48:02;;;;;;;;;;;41.50;63.50;;;;;;5095107;28;19973;-73
2022/07/09 05:50:27;;;;;;;;;;;41.60;61.70;;;;;;5095568;28;19904;-73
2022/07/09 05:52:53;;;;;;;;;;;42.10;60.80;;;;;;5095069;28;20328;-73
2022/07/09 05:55:19;;;;;;;;;;;41.00;60.50;;;;;;5094654;28;19949;-73
2022/07/09 05:57:46;;;;;;;;;;;39.70;62.80;;;;;;5094996;28;19904;-73
2022/07/09 06:00:12;;;;;;;;;;;40.10;63.10;;;;;;5094646;28;19903;-73
2022/07/09 06:02:37;;;;;;;;;;;40.10;62.40;;;;;;5094576;28;20323;-73
2022/07/09 06:05:03;;;;;;;;;;;40.10;61.50;;;;;;5094697;28;19965;-73
2022/07/09 06:07:29;;;;;;;;;;;40.70;61.30;;;;;;5093261;28;19923;-74
2022/07/09 06:09:55;;;;;;;;;;;41.60;59.20;;;;;;5094509;28;19909;-74
2022/07/09 06:12:21;;;;;;;;;;;42.40;58.50;;;;;;5094411;28;19916;-73
2022/07/09 06:14:47;;;;;;;;;;;43.30;58.10;;;;;;5094323;28;19907;-73
2022/07/09 06:17:13;;;;;;;;;;;43.20;57.00;;;;;;5094127;28;19903;-74
2022/07/09 06:20:00;;;;;;;;;;;43.70;56.00;;;;;;5093446;28;19904;-74
2022/07/09 06:22:26;;;;;;;;;;;43.70;54.60;;;;;;5095013;28;19908;-74
2022/07/09 06:24:52;;;;;;;;;;;42.50;56.70;;;;;;5094912;28;19910;-74
2022/07/09 06:27:17;;;;;;;;;;;42.80;55.80;;;;;;5094436;28;19950;-74
2022/07/09 06:29:43;;;;;;;;;;;42.10;55.00;;;;;;5094386;28;19911;-74
2022/07/09 06:32:09;;;;;;;;;;;40.00;57.60;;;;;;5094390;28;19927;-74
2022/07/09 06:34:35;;;;;;;;;;;40.20;58.10;;;;;;5092864;28;19958;-74
2022/07/09 06:37:01;;;;;;;;;;;40.50;57.90;;;;;;5094474;28;19965;-74
2022/07/09 06:39:45;;;;;;;;;;;40.50;57.40;;;;;;5093930;28;19908;-74
2022/07/09 06:42:11;;;;;;;;;;;39.20;58.60;;;;;;5094403;28;20003;-74
2022/07/09 06:44:37;;;;;;;;;;;37.50;60.40;;;;;;5094259;28;19943;-73
2022/07/09 06:47:03;;;;;;;;;;;38.30;60.20;;;;;;5094434;28;20049;-74
2022/07/09 06:49:29;;;;;;;;;;;38.80;59.40;;;;;;5094395;28;20312;-74
2022/07/09 06:51:55;;;;;;;;;;;39.80;58.50;;;;;;5094410;28;19990;-74
2022/07/09 06:54:21;;;;;;;;;;;39.40;57.50;;;;;;5093862;28;19947;-73
2022/07/09 06:56:47;;;;;;;;;;;38.40;57.80;;;;;;5093765;28;19942;-73
2022/07/09 06:59:13;;;;;;;;;;;38.40;58.40;;;;;;5094011;28;19911;-74
2022/07/09 07:01:39;;;;;;;;;;;37.40;59.50;;;;;;5093621;28;19908;-74
2022/07/09 07:04:05;;;;;;;;;;;38.20;57.90;;;;;;5093890;28;19954;-73
2022/07/09 07:06:31;;;;;;;;;;;38.90;56.90;;;;;;5093688;28;20007;-73
2022/07/09 07:08:57;;;;;;;;;;;38.40;57.60;;;;;;5094145;28;19912;-73
2022/07/09 07:11:24;;;;;;;;;;;38.80;57.20;;;;;;5093344;28;20008;-73
2022/07/09 07:13:49;;;;;;;;;;;39.50;56.20;;;;;;5094018;28;19953;-74
2022/07/09 07:16:15;;;;;;;;;;;39.00;56.80;;;;;;5093432;28;19915;-73
2022/07/09 07:18:41;;;;;;;;;;;37.80;58.00;;;;;;5093899;28;20370;-73
2022/07/09 07:21:07;;;;;;;;;;;37.70;58.30;;;;;;5091772;28;19953;-73
2022/07/09 07:23:32;;;;;;;;;;;36.80;59.70;;;;;;5093621;28;19912;-73
2022/07/09 07:25:59;;;;;;;;;;;36.60;60.90;;;;;;5093214;28;20065;-73
2022/07/09 07:28:25;;;;;;;;;;;37.00;60.40;;;;;;5093629;28;19931;-74
2022/07/09 07:30:50;;;;;;;;;;;36.80;61.00;;;;;;5092998;28;19904;-73
2022/07/09 07:33:16;;;;;;;;;;;36.10;60.00;;;;;;5092845;28;20399;-73
2022/07/09 07:35:43;;;;;;;;;;;34.70;62.10;;;;;;5093173;28;19999;-74
2022/07/09 07:38:09;;;;;;;;;;;34.00;64.00;;;;;;5092904;28;19926;-74
2022/07/09 07:40:36;;;;;;;;;;;33.40;65.30;;;;;;5093200;28;19908;-73
2022/07/09 07:43:02;;;;;;;;;;;33.10;65.70;;;;;;5093002;28;20063;-73
2022/07/09 07:45:28;;;;;;;;;;;33.10;66.80;;;;;;5093417;28;19965;-73
2022/07/09 07:47:54;;;;;;;;;;;33.00;66.90;;;;;;5092755;28;19904;-74
2022/07/09 07:50:22;;;;;;;;;;;32.90;66.80;;;;;;5092894;28;19911;-72
2022/07/09 07:52:48;;;;;;;;;;;32.40;67.40;;;;;;5092833;28;19904;-72
2022/07/09 07:55:14;;;;;;;;;;;32.60;67.20;;;;;;5092541;28;19915;-73
2022/07/09 07:57:40;;;;;;;;;;;32.70;66.80;;;;;;5092513;28;19916;-73
2022/07/09 08:00:07;;;;;;;;;;;32.70;66.20;;;;;;5092375;28;19950;-73
2022/07/09 08:02:34;;;;;;;;;;;32.60;66.60;;;;;;5092391;28;19908;-73
2022/07/09 08:05:00;;;;;;;;;;;32.50;68.30;;;;;;5092058;28;19912;-73
2022/07/09 08:07:26;;;;;;;;;;;32.40;69.10;;;;;;5092117;28;19904;-74
2022/07/09 08:09:52;;;;;;;;;;;31.80;70.40;;;;;;5090137;28;19923;-73
2022/07/09 08:12:17;;;;;;;;;;;31.60;72.60;;;;;;5090402;28;20004;-71
2022/07/09 08:14:43;;;;;;;;;;;32.20;71.70;;;;;;5089555;28;20216;-72
2022/07/09 08:17:09;;;;;;;;;;;32.70;69.60;;;;;;5090638;28;19911;-73
2022/07/09 08:19:35;;;;;;;;;;;33.00;69.10;;;;;;5092199;28;19904;-74
2022/07/09 08:22:01;;;;;;;;;;;33.30;68.20;;;;;;5092353;28;20393;-72
2022/07/09 08:24:27;;;;;;;;;;;32.60;69.50;;;;;;5092781;28;19916;-73
2022/07/09 08:26:53;;;;;;;;;;;32.50;69.60;;;;;;5092518;28;19911;-75
2022/07/09 08:29:18;;;;;;;;;;;32.60;69.40;;;;;;5092502;28;20386;-74
2022/07/09 08:31:44;;;;;;;;;;;32.70;68.60;;;;;;5090926;28;19904;-74
2022/07/09 08:34:10;;;;;;;;;;;32.80;67.10;;;;;;5092371;28;19904;-74
2022/07/09 08:36:36;;;;;;;;;;;32.90;67.40;;;;;;5092185;28;20002;-74
2022/07/09 08:39:02;;;;;;;;;;;33.10;66.50;;;;;;5092693;28;19949;-74
2022/07/09 08:41:28;;;;;;;;;;;33.30;66.00;;;;;;5090819;28;20317;-74
2022/07/09 08:43:54;;;;;;;;;;;33.40;65.90;;;;;;5096171;28;19933;-74
2022/07/09 08:46:20;;;;;;;;;;;33.70;65.80;;;;;;5096634;28;19905;-74
2022/07/09 08:48:47;;;;;;;;;;;32.80;66.70;;;;;;5096743;28;20312;-74
2022/07/09 08:51:15;;;;;;;;;;;32.10;69.00;;;;;;5096337;28;19924;-74
2022/07/09 08:53:42;;;;;;;;;;;32.30;69.30;;;;;;5096177;28;19975;-74
2022/07/09 08:56:08;;;;;;;;;;;32.60;68.90;;;;;;5096179;28;20363;-74
2022/07/09 08:58:34;;;;;;;;;;;32.90;68.50;;;;;;5096081;28;19904;-74
2022/07/09 09:01:00;;;;;;;;;;;33.40;66.30;;;;;;5095911;28;19904;-74
2022/07/09 09:03:26;;;;;;;;;;;32.70;66.00;;;;;;5094431;28;19911;-74
2022/07/09 09:06:08;;;;;;;;;;;32.70;64.80;;;;;;5095767;28;20360;-74
2022/07/09 09:08:35;;;;;;;;;;;32.40;64.90;;;;;;5095852;28;19930;-74
2022/07/09 09:11:01;;;;;;;;;;;32.10;64.90;;;;;;5095929;28;19944;-74
2022/07/09 09:13:27;;;;;;;;;;;32.10;66.20;;;;;;5096167;28;19962;-74
2022/07/09 09:16:09;;;;;;;;;;;32.40;66.50;;;;;;5094300;28;19979;-74
2022/07/09 09:18:36;;;;;;;;;;;32.50;67.10;;;;;;5095816;28;19954;-74
2022/07/09 09:21:03;;;;;;;;;;;31.80;66.40;;;;;;5095552;28;19904;-74
2022/07/09 09:23:29;;;;;;;;;;;31.50;68.10;;;;;;5094131;28;19956;-74
2022/07/09 09:25:55;;;;;;;;;;;31.20;68.40;;;;;;5094241;28;20003;-74
2022/07/09 09:28:20;;;;;;;;;;;31.30;68.90;;;;;;5095447;28;19970;-74
2022/07/09 09:30:46;;;;;;;;;;;31.30;69.20;;;;;;5095219;28;19904;-75
2022/07/09 09:33:15;;;;;;;;;;;31.00;69.60;;;;;;5095819;28;20340;-74
2022/07/09 09:35:44;;;;;;;;;;;31.30;69.60;;;;;;5095362;28;20356;-75
2022/07/09 09:38:10;;;;;;;;;;;31.40;68.40;;;;;;5095395;28;19927;-74
2022/07/09 09:40:36;;;;;;;;;;;31.10;68.80;;;;;;5095077;28;19904;-73
2022/07/09 09:43:02;;;;;;;;;;;30.90;68.80;;;;;;5095028;28;20014;-74
2022/07/09 09:45:28;;;;;;;;;;;31.00;69.30;;;;;;5095171;28;19915;-73
2022/07/09 09:47:54;;;;;;;;;;;31.00;70.00;;;;;;5095398;28;19904;-74
2022/07/09 09:50:21;;;;;;;;;;;30.50;71.50;;;;;;5094807;28;19911;-74
2022/07/09 09:52:48;;;;;;;;;;;30.50;70.80;;;;;;5094878;28;20058;-74
2022/07/09 09:55:15;;;;;;;;;;;30.70;70.20;;;;;;5095255;28;19946;-74
2022/07/09 09:57:41;;;;;;;;;;;30.90;69.30;;;;;;5093520;28;19911;-74
2022/07/09 10:00:08;;;;;;;;;;;31.00;68.30;;;;;;5093353;28;19908;-74
2022/07/09 10:02:35;;;;;;;;;;;31.40;68.00;;;;;;5095114;28;20361;-74
2022/07/09 10:05:01;;;;;;;;;;;31.50;67.30;;;;;;5094655;28;19999;-74
2022/07/09 10:07:27;;;;;;;;;;;31.50;66.90;;;;;;5095020;28;20410;-75
2022/07/09 10:09:58;;;;;;;;;;;31.60;67.00;;;;;;5094475;28;19935;-74
2022/07/09 10:12:30;;;;;;;;;;;31.50;66.00;;;;;;5094507;28;19930;-74
2022/07/09 10:14:56;;;;;;;;;;;31.30;67.30;;;;;;5094507;28;19904;-73
2022/07/09 10:17:24;;;;;;;;;;;31.50;67.20;;;;;;5094443;28;19911;-73
2022/07/09 10:19:57;;;;;;;;;;;31.70;67.20;;;;;;5094304;28;20382;-73
2022/07/09 10:22:40;;;;;;;;;;;31.50;67.50;;;;;;5094106;28;19908;-73
2022/07/09 10:25:06;;;;;;;;;;;31.00;67.80;;;;;;5093972;28;19969;-73
2022/07/09 10:27:45;;;;;;;;;;;30.80;68.90;;;;;;5094142;28;19987;-73
2022/07/09 10:30:24;;;;;;;;;;;30.80;69.20;;;;;;5092539;28;19923;-74
2022/07/09 10:33:09;;;;;;;;;;;30.90;69.30;;;;;;5092743;28;19997;-73
2022/07/09 10:35:42;;;;;;;;;;;31.00;68.60;;;;;;5092458;28;19904;-73
2022/07/09 10:38:08;;;;;;;;;;;31.00;69.50;;;;;;5093788;28;19999;-74
2022/07/09 10:40:38;;;;;;;;;;;31.30;68.00;;;;;;5093785;28;19947;-73
2022/07/09 10:43:04;;;;;;;;;;;31.10;68.00;;;;;;5093513;28;19985;-73
2022/07/09 10:45:36;;;;;;;;;;;30.90;68.40;;;;;;5093571;28;19916;-73
2022/07/09 10:48:03;;;;;;;;;;;30.80;69.10;;;;;;5093816;28;19940;-73
2022/07/09 10:50:29;;;;;;;;;;;30.90;69.10;;;;;;5092366;28;19904;-73
2022/07/09 10:52:56;;;;;;;;;;;31.10;68.70;;;;;;5093979;28;19904;-73
2022/07/09 10:55:23;;;;;;;;;;;31.20;68.70;;;;;;5094284;28;20253;-74
2022/07/09 10:57:49;;;;;;;;;;;31.30;68.80;;;;;;5093618;28;19927;-73
2022/07/09 11:00:21;;;;;;;;;;;31.50;68.30;;;;;;5093686;28;19904;-74
2022/07/09 11:02:58;;;;;;;;;;;31.70;68.60;;;;;;5094292;28;19919;-74
2022/07/09 11:05:24;;;;;;;;;;;32.10;67.60;;;;;;5091731;28;19954;-74
2022/07/09 11:07:54;;;;;;;;;;;31.60;67.80;;;;;;5092299;28;19911;-72
2022/07/09 11:10:20;;;;;;;;;;;31.50;67.10;;;;;;5093350;28;19952;-73
2022/07/09 11:12:49;;;;;;;;;;;31.50;66.70;;;;;;5093436;28;19916;-73
2022/07/09 11:15:18;;;;;;;;;;;31.60;66.60;;;;;;5093892;28;20549;-73
2022/07/09 11:17:53;;;;;;;;;;;31.50;66.40;;;;;;5093753;28;19904;-73
2022/07/09 11:20:19;;;;;;;;;;;31.70;66.50;;;;;;5094137;28;19990;-73
2022/07/09 11:22:48;;;;;;;;;;;31.90;66.30;;;;;;5093651;28;20003;-73
2022/07/09 11:25:17;;;;;;;;;;;31.90;66.30;;;;;;5093748;28;20052;-73
2022/07/09 11:27:43;;;;;;;;;;;31.80;66.90;;;;;;5092301;28;19918;-73
2022/07/09 11:30:12;;;;;;;;;;;31.90;66.00;;;;;;5093814;28;19904;-73
2022/07/09 11:32:38;;;;;;;;;;;32.10;66.50;;;;;;5092029;28;19904;-73
2022/07/09 11:35:04;;;;;;;;;;;31.80;66.50;;;;;;5093233;28;20380;-73
2022/07/09 11:37:30;;;;;;;;;;;31.50;65.80;;;;;;5093428;28;19904;-73
2022/07/09 11:39:56;;;;;;;;;;;31.40;65.50;;;;;;5093059;28;19910;-73
2022/07/09 11:42:22;;;;;;;;;;;31.30;66.00;;;;;;5093075;28;20359;-73
2022/07/09 11:44:54;;;;;;;;;;;31.30;66.00;;;;;;5092867;28;20012;-73
2022/07/09 11:47:31;;;;;;;;;;;31.00;66.70;;;;;;5093237;28;19974;-73
2022/07/09 11:50:04;;;;;;;;;;;31.20;66.70;;;;;;5093460;28;19904;-73
2022/07/09 11:52:30;;;;;;;;;;;31.00;66.60;;;;;;5093002;28;19904;-73
2022/07/09 11:55:01;;;;;;;;;;;31.20;66.70;;;;;;5093294;28;19904;-73
2022/07/09 11:57:28;;;;;;;;;;;31.30;66.50;;;;;;5092825;28;19907;-73
2022/07/09 11:59:54;;;;;;;;;;;31.70;65.60;;;;;;5092945;28;19904;-73
2022/07/09 12:02:23;;;;;;;;;;;32.00;65.90;;;;;;5092848;28;20237;-73
2022/07/09 12:04:49;;;;;;;;;;;32.10;64.90;;;;;;5091272;28;19907;-73
2022/07/09 12:07:15;;;;;;;;;;;31.90;64.80;;;;;;5091094;28;19998;-73
2022/07/09 12:09:41;;;;;;;;;;;31.50;64.90;;;;;;5091215;28;19911;-74
2022/07/09 12:12:07;;;;;;;;;;;31.50;65.20;;;;;;5092560;28;19916;-74
2022/07/09 12:14:33;;;;;;;;;;;31.50;65.30;;;;;;5092747;28;19923;-72
2022/07/09 12:16:59;;;;;;;;;;;31.20;65.30;;;;;;5091673;28;19904;-72
2022/07/09 12:19:25;;;;;;;;;;;31.10;65.70;;;;;;5092967;28;19912;-74
2022/07/09 12:21:51;;;;;;;;;;;30.90;66.20;;;;;;5092967;28;19911;-73
2022/07/09 12:24:17;;;;;;;;;;;30.90;66.10;;;;;;5093009;28;20010;-72
2022/07/09 12:26:42;;;;;;;;;;;31.20;65.60;;;;;;5092601;28;19954;-73
2022/07/09 12:29:08;;;;;;;;;;;31.30;65.10;;;;;;5092606;28;19987;-72
2022/07/09 12:31:37;;;;;;;;;;;31.60;66.10;;;;;;5092624;28;20057;-73
2022/07/09 12:34:04;;;;;;;;;;;31.50;64.80;;;;;;5092601;28;20297;-72
2022/07/09 12:36:30;;;;;;;;;;;31.20;69.50;;;;;;5092462;28;19904;-73
2022/07/09 12:38:56;;;;;;;;;;;31.50;72.30;;;;;;5092489;28;19904;-73
2022/07/09 12:41:21;;;;;;;;;;;31.30;69.50;;;;;;5093000;28;19904;-73
2022/07/09 12:43:47;;;;;;;;;;;30.90;71.80;;;;;;5092407;28;19923;-73
2022/07/09 12:46:13;;;;;;;;;;;31.10;70.50;;;;;;5092889;28;19943;-73
2022/07/09 12:48:39;;;;;;;;;;;31.20;65.60;;;;;;5092436;28;19943;-73
2022/07/09 12:51:05;;;;;;;;;;;31.10;65.10;;;;;;5092503;28;19904;-73
2022/07/09 12:53:30;;;;;;;;;;;30.80;64.30;;;;;;5092524;28;19908;-73
2022/07/09 12:55:56;;;;;;;;;;;30.80;63.50;;;;;;5091109;28;19911;-73
2022/07/09 12:58:22;;;;;;;;;;;31.10;63.00;;;;;;5092496;28;19904;-73
2022/07/09 13:00:48;;;;;;;;;;;31.10;62.40;;;;;;5092425;28;19914;-72
2022/07/09 13:03:14;;;;;;;;;;;31.00;61.80;;;;;;5092745;28;19919;-73
2022/07/09 13:05:39;;;;;;;;;;;31.30;61.90;;;;;;5092422;28;19998;-73
2022/07/09 13:08:05;;;;;;;;;;;31.20;62.60;;;;;;5092216;28;19904;-73
2022/07/09 13:10:31;;;;;;;;;;;31.20;61.80;;;;;;5092584;28;20364;-72
2022/07/09 13:12:57;;;;;;;;;;;31.30;63.00;;;;;;5092417;28;19916;-73
2022/07/09 13:15:23;;;;;;;;;;;31.50;63.40;;;;;;5092634;28;19990;-73
2022/07/09 13:17:49;;;;;;;;;;;31.60;64.00;;;;;;5092162;28;19983;-73
2022/07/09 13:20:15;;;;;;;;;;;31.30;64.20;;;;;;5092229;28;20370;-73
2022/07/09 13:22:41;;;;;;;;;;;31.20;64.70;;;;;;5092574;28;20298;-72
2022/07/09 13:25:07;;;;;;;;;;;31.20;64.30;;;;;;5092173;28;19950;-72
2022/07/09 13:27:32;;;;;;;;;;;31.30;64.30;;;;;;5092208;28;19904;-72
2022/07/09 13:29:58;;;;;;;;;;;31.30;64.20;;;;;;5094125;28;19907;-73
2022/07/09 13:32:24;;;;;;;;;;;31.50;63.60;;;;;;5096210;28;20003;-73
2022/07/09 13:34:50;;;;;;;;;;;31.80;61.90;;;;;;5096208;28;20038;-73
2022/07/09 13:37:16;;;;;;;;;;;31.60;62.70;;;;;;5096373;28;19915;-72
2022/07/09 13:39:42;;;;;;;;;;;31.40;63.40;;;;;;5095689;28;19904;-73
2022/07/09 13:42:08;;;;;;;;;;;31.20;62.90;;;;;;5095323;28;19931;-73
2022/07/09 13:44:34;;;;;;;;;;;31.20;63.40;;;;;;5095422;28;19912;-73
2022/07/09 13:47:00;;;;;;;;;;;31.40;60.50;;;;;;5095790;28;19904;-72
2022/07/09 13:49:26;;;;;;;;;;;31.30;61.70;;;;;;5094080;28;19910;-73
2022/07/09 13:51:52;;;;;;;;;;;31.40;62.10;;;;;;5095062;28;20314;-73
2022/07/09 13:54:17;;;;;;;;;;;31.40;62.10;;;;;;5095155;28;19972;-73
2022/07/09 13:56:43;;;;;;;;;;;31.40;62.10;;;;;;5093370;28;20382;-73
2022/07/09 13:59:09;;;;;;;;;;;31.40;61.90;;;;;;5095159;28;19950;-73
2022/07/09 14:01:35;;;;;;;;;;;31.10;61.60;;;;;;5093314;28;20294;-74
2022/07/09 14:04:01;;;;;;;;;;;31.30;62.30;;;;;;5094768;28;19912;-73
2022/07/09 14:06:28;;;;;;;;;;;31.40;61.20;;;;;;5094980;28;19998;-73
2022/07/09 14:08:53;;;;;;;;;;;31.40;61.10;;;;;;5094857;28;19923;-73
2022/07/09 14:11:19;;;;;;;;;;;31.60;61.10;;;;;;5094738;28;20303;-73